sensor_id;sensor_type;location;lat;lon;timestamp;P1;durP1;ratioP1;P2;durP2;ratioP2
2055;SDS011;1033;52.560;13.374;2023-05-15T00:00:12;23.77;;;18.30;;
2055;SDS011;1033;52.560;13.374;2023-05-15T00:02:43;19.90;;;17.90;;
2055;SDS011;1033;52.560;13.374;2023-05-15T00:05:12;25.20;;;16.70;;
2055;SDS011;1033;52.560;13.374;2023-05-15T00:07:42;20.83;;;16.90;;
2055;SDS011;1033;52.560;13.374;2023-05-15T00:10:11;18.87;;;16.73;;
2055;SDS011;1033;52.560;13.374;2023-05-15T00:12:40;18.47;;;16.53;;
2055;SDS011;1033;52.560;13.374;2023-05-15T00:15:10;14.47;;;13.00;;
2055;SDS011;1033;52.560;13.374;2023-05-15T00:17:39;16.93;;;15.17;;
2055;SDS011;1033;52.560;13.374;2023-05-15T00:20:10;17.03;;;15.37;;
2055;SDS011;1033;52.560;13.374;2023-05-15T00:22:39;15.00;;;13.60;;
2055;SDS011;1033;52.560;13.374;2023-05-15T00:25:08;17.37;;;15.57;;
2055;SDS011;1033;52.560;13.374;2023-05-15T00:27:37;18.20;;;16.40;;
2055;SDS011;1033;52.560;13.374;2023-05-15T00:30:06;18.10;;;16.50;;
2055;SDS011;1033;52.560;13.374;2023-05-15T00:32:38;17.97;;;16.37;;
2055;SDS011;1033;52.560;13.374;2023-05-15T00:35:07;16.17;;;14.63;;
2055;SDS011;1033;52.560;13.374;2023-05-15T00:37:37;17.57;;;15.70;;
2055;SDS011;1033;52.560;13.374;2023-05-15T00:40:06;16.53;;;14.83;;
2055;SDS011;1033;52.560;13.374;2023-05-15T00:42:39;17.20;;;15.43;;
2055;SDS011;1033;52.560;13.374;2023-05-15T00:45:09;18.10;;;15.40;;
2055;SDS011;1033;52.560;13.374;2023-05-15T00:47:39;17.73;;;16.00;;
2055;SDS011;1033;52.560;13.374;2023-05-15T00:50:11;19.73;;;16.07;;
2055;SDS011;1033;52.560;13.374;2023-05-15T00:52:40;18.27;;;16.43;;
2055;SDS011;1033;52.560;13.374;2023-05-15T00:55:10;17.90;;;16.03;;
2055;SDS011;1033;52.560;13.374;2023-05-15T00:57:39;18.23;;;16.43;;
2055;SDS011;1033;52.560;13.374;2023-05-15T01:00:11;21.43;;;16.87;;
2055;SDS011;1033;52.560;13.374;2023-05-15T01:02:44;16.73;;;15.03;;
2055;SDS011;1033;52.560;13.374;2023-05-15T01:05:15;19.40;;;17.50;;
2055;SDS011;1033;52.560;13.374;2023-05-15T01:07:46;19.00;;;17.00;;
2055;SDS011;1033;52.560;13.374;2023-05-15T01:10:19;18.33;;;16.33;;
2055;SDS011;1033;52.560;13.374;2023-05-15T01:12:50;18.63;;;15.50;;
2055;SDS011;1033;52.560;13.374;2023-05-15T01:15:23;17.73;;;15.20;;
2055;SDS011;1033;52.560;13.374;2023-05-15T01:17:53;18.77;;;16.67;;
2055;SDS011;1033;52.560;13.374;2023-05-15T01:20:23;20.20;;;17.97;;
2055;SDS011;1033;52.560;13.374;2023-05-15T01:23:04;22.00;;;17.10;;
2055;SDS011;1033;52.560;13.374;2023-05-15T01:28:54;19.63;;;16.37;;
2055;SDS011;1033;52.560;13.374;2023-05-15T01:31:26;20.83;;;17.27;;
2055;SDS011;1033;52.560;13.374;2023-05-15T01:34:02;18.23;;;16.33;;
2055;SDS011;1033;52.560;13.374;2023-05-15T01:36:36;21.57;;;16.70;;
2055;SDS011;1033;52.560;13.374;2023-05-15T01:39:10;21.03;;;17.83;;
2055;SDS011;1033;52.560;13.374;2023-05-15T01:41:48;18.80;;;17.10;;
2055;SDS011;1033;52.560;13.374;2023-05-15T01:44:25;19.40;;;17.50;;
2055;SDS011;1033;52.560;13.374;2023-05-15T01:47:00;21.00;;;16.37;;
2055;SDS011;1033;52.560;13.374;2023-05-15T01:49:34;18.67;;;16.50;;
2055;SDS011;1033;52.560;13.374;2023-05-15T01:52:05;18.60;;;16.77;;
2055;SDS011;1033;52.560;13.374;2023-05-15T01:54:40;17.85;;;16.23;;
2055;SDS011;1033;52.560;13.374;2023-05-15T01:57:11;21.63;;;17.60;;
2055;SDS011;1033;52.560;13.374;2023-05-15T01:59:42;19.87;;;17.80;;
2055;SDS011;1033;52.560;13.374;2023-05-15T02:02:12;21.27;;;17.60;;
2055;SDS011;1033;52.560;13.374;2023-05-15T02:04:42;19.10;;;17.20;;
2055;SDS011;1033;52.560;13.374;2023-05-15T02:07:13;19.23;;;17.33;;
2055;SDS011;1033;52.560;13.374;2023-05-15T02:09:43;19.10;;;17.10;;
2055;SDS011;1033;52.560;13.374;2023-05-15T02:12:14;18.98;;;17.08;;
2055;SDS011;1033;52.560;13.374;2023-05-15T02:14:45;20.35;;;17.05;;
2055;SDS011;1033;52.560;13.374;2023-05-15T02:17:18;18.00;;;16.30;;
2055;SDS011;1033;52.560;13.374;2023-05-15T02:19:49;17.57;;;14.97;;
2055;SDS011;1033;52.560;13.374;2023-05-15T02:22:19;18.27;;;16.50;;
2055;SDS011;1033;52.560;13.374;2023-05-15T02:24:48;19.40;;;17.40;;
2055;SDS011;1033;52.560;13.374;2023-05-15T02:27:18;20.20;;;18.00;;
2055;SDS011;1033;52.560;13.374;2023-05-15T02:30:01;22.20;;;16.13;;
2055;SDS011;1033;52.560;13.374;2023-05-15T02:32:38;18.88;;;16.92;;
2055;SDS011;1033;52.560;13.374;2023-05-15T02:35:18;17.60;;;15.90;;
2055;SDS011;1033;52.560;13.374;2023-05-15T02:37:54;17.95;;;16.20;;
2055;SDS011;1033;52.560;13.374;2023-05-15T02:40:28;22.57;;;16.33;;
2055;SDS011;1033;52.560;13.374;2023-05-15T02:42:58;18.90;;;16.90;;
2055;SDS011;1033;52.560;13.374;2023-05-15T02:45:30;23.67;;;18.20;;
2055;SDS011;1033;52.560;13.374;2023-05-15T02:48:01;19.00;;;16.97;;
2055;SDS011;1033;52.560;13.374;2023-05-15T02:50:32;18.98;;;17.08;;
2055;SDS011;1033;52.560;13.374;2023-05-15T02:53:01;21.20;;;18.05;;
2055;SDS011;1033;52.560;13.374;2023-05-15T02:55:30;19.40;;;17.40;;
2055;SDS011;1033;52.560;13.374;2023-05-15T02:58:00;21.52;;;18.42;;
2055;SDS011;1033;52.560;13.374;2023-05-15T03:00:32;20.30;;;18.10;;
2055;SDS011;1033;52.560;13.374;2023-05-15T03:03:01;19.97;;;18.00;;
2055;SDS011;1033;52.560;13.374;2023-05-15T03:05:31;20.07;;;18.33;;
2055;SDS011;1033;52.560;13.374;2023-05-15T03:08:01;19.37;;;17.37;;
2055;SDS011;1033;52.560;13.374;2023-05-15T03:10:30;20.33;;;17.67;;
2055;SDS011;1033;52.560;13.374;2023-05-15T03:12:59;20.80;;;18.73;;
2055;SDS011;1033;52.560;13.374;2023-05-15T03:15:29;24.07;;;18.20;;
2055;SDS011;1033;52.560;13.374;2023-05-15T03:17:59;20.17;;;18.17;;
2055;SDS011;1033;52.560;13.374;2023-05-15T03:20:29;18.43;;;16.63;;
2055;SDS011;1033;52.560;13.374;2023-05-15T03:22:58;19.92;;;17.30;;
2055;SDS011;1033;52.560;13.374;2023-05-15T03:25:28;24.17;;;16.48;;
2055;SDS011;1033;52.560;13.374;2023-05-15T03:27:57;19.25;;;16.98;;
2055;SDS011;1033;52.560;13.374;2023-05-15T03:30:27;19.13;;;17.23;;
2055;SDS011;1033;52.560;13.374;2023-05-15T03:32:57;19.95;;;17.83;;
2055;SDS011;1033;52.560;13.374;2023-05-15T03:35:29;19.17;;;16.57;;
2055;SDS011;1033;52.560;13.374;2023-05-15T03:37:59;19.08;;;17.38;;
2055;SDS011;1033;52.560;13.374;2023-05-15T03:40:28;18.10;;;16.10;;
2055;SDS011;1033;52.560;13.374;2023-05-15T03:42:57;17.97;;;16.37;;
2055;SDS011;1033;52.560;13.374;2023-05-15T03:45:26;22.17;;;19.83;;
2055;SDS011;1033;52.560;13.374;2023-05-15T03:47:57;19.40;;;17.35;;
2055;SDS011;1033;52.560;13.374;2023-05-15T03:50:27;18.23;;;16.42;;
2055;SDS011;1033;52.560;13.374;2023-05-15T03:52:58;17.67;;;16.13;;
2055;SDS011;1033;52.560;13.374;2023-05-15T03:55:27;18.45;;;16.50;;
2055;SDS011;1033;52.560;13.374;2023-05-15T03:57:57;16.73;;;15.00;;
2055;SDS011;1033;52.560;13.374;2023-05-15T04:00:26;18.58;;;16.55;;
2055;SDS011;1033;52.560;13.374;2023-05-15T04:02:55;17.10;;;15.50;;
2055;SDS011;1033;52.560;13.374;2023-05-15T04:05:26;18.07;;;15.90;;
2055;SDS011;1033;52.560;13.374;2023-05-15T04:07:57;16.70;;;15.10;;
2055;SDS011;1033;52.560;13.374;2023-05-15T04:10:29;17.37;;;15.67;;
2055;SDS011;1033;52.560;13.374;2023-05-15T04:12:59;18.93;;;16.00;;
2055;SDS011;1033;52.560;13.374;2023-05-15T04:15:29;15.10;;;13.70;;
2055;SDS011;1033;52.560;13.374;2023-05-15T04:17:59;16.47;;;14.93;;
2055;SDS011;1033;52.560;13.374;2023-05-15T04:20:28;19.73;;;16.63;;
2055;SDS011;1033;52.560;13.374;2023-05-15T04:22:59;17.47;;;15.67;;
2055;SDS011;1033;52.560;13.374;2023-05-15T04:25:29;24.33;;;14.90;;
2055;SDS011;1033;52.560;13.374;2023-05-15T04:27:59;18.23;;;14.47;;
2055;SDS011;1033;52.560;13.374;2023-05-15T04:30:28;15.20;;;13.90;;
2055;SDS011;1033;52.560;13.374;2023-05-15T04:32:57;15.30;;;13.90;;
2055;SDS011;1033;52.560;13.374;2023-05-15T04:35:28;17.10;;;12.30;;
2055;SDS011;1033;52.560;13.374;2023-05-15T04:37:58;16.17;;;14.60;;
2055;SDS011;1033;52.560;13.374;2023-05-15T04:40:28;29.60;;;17.20;;
2055;SDS011;1033;52.560;13.374;2023-05-15T04:42:58;22.93;;;15.10;;
2055;SDS011;1033;52.560;13.374;2023-05-15T04:45:29;16.33;;;13.50;;
2055;SDS011;1033;52.560;13.374;2023-05-15T04:48:00;16.70;;;15.00;;
2055;SDS011;1033;52.560;13.374;2023-05-15T04:50:30;15.73;;;14.20;;
2055;SDS011;1033;52.560;13.374;2023-05-15T04:52:59;18.97;;;15.00;;
2055;SDS011;1033;52.560;13.374;2023-05-15T04:55:29;20.73;;;16.30;;
2055;SDS011;1033;52.560;13.374;2023-05-15T04:57:59;19.77;;;17.30;;
2055;SDS011;1033;52.560;13.374;2023-05-15T05:00:28;20.50;;;16.17;;
2055;SDS011;1033;52.560;13.374;2023-05-15T05:02:58;23.03;;;16.30;;
2055;SDS011;1033;52.560;13.374;2023-05-15T05:05:30;18.60;;;13.90;;
2055;SDS011;1033;52.560;13.374;2023-05-15T05:07:59;21.37;;;14.27;;
2055;SDS011;1033;52.560;13.374;2023-05-15T05:10:28;14.63;;;13.13;;
2055;SDS011;1033;52.560;13.374;2023-05-15T05:12:57;18.60;;;13.20;;
2055;SDS011;1033;52.560;13.374;2023-05-15T05:15:27;16.70;;;13.30;;
2055;SDS011;1033;52.560;13.374;2023-05-15T05:17:56;21.20;;;13.13;;
2055;SDS011;1033;52.560;13.374;2023-05-15T05:20:27;13.50;;;12.20;;
2055;SDS011;1033;52.560;13.374;2023-05-15T05:22:57;14.60;;;13.17;;
2055;SDS011;1033;52.560;13.374;2023-05-15T05:25:26;16.20;;;14.60;;
2055;SDS011;1033;52.560;13.374;2023-05-15T05:27:57;14.90;;;13.60;;
2055;SDS011;1033;52.560;13.374;2023-05-15T05:30:27;15.67;;;14.47;;
2055;SDS011;1033;52.560;13.374;2023-05-15T05:32:56;16.67;;;14.97;;
2055;SDS011;1033;52.560;13.374;2023-05-15T05:35:27;15.90;;;14.23;;
2055;SDS011;1033;52.560;13.374;2023-05-15T05:37:56;14.37;;;13.07;;
2055;SDS011;1033;52.560;13.374;2023-05-15T05:40:27;13.57;;;12.37;;
2055;SDS011;1033;52.560;13.374;2023-05-15T05:42:57;17.90;;;13.83;;
2055;SDS011;1033;52.560;13.374;2023-05-15T05:45:27;15.53;;;13.50;;
2055;SDS011;1033;52.560;13.374;2023-05-15T05:47:57;16.43;;;14.70;;
2055;SDS011;1033;52.560;13.374;2023-05-15T05:50:27;15.40;;;14.00;;
2055;SDS011;1033;52.560;13.374;2023-05-15T05:52:57;23.70;;;14.30;;
2055;SDS011;1033;52.560;13.374;2023-05-15T05:55:26;15.30;;;13.80;;
2055;SDS011;1033;52.560;13.374;2023-05-15T05:57:55;20.30;;;14.57;;
2055;SDS011;1033;52.560;13.374;2023-05-15T06:00:24;17.67;;;15.93;;
2055;SDS011;1033;52.560;13.374;2023-05-15T06:02:59;16.70;;;15.20;;
2055;SDS011;1033;52.560;13.374;2023-05-15T06:05:30;16.17;;;14.57;;
2055;SDS011;1033;52.560;13.374;2023-05-15T06:07:59;16.60;;;13.90;;
2055;SDS011;1033;52.560;13.374;2023-05-15T06:10:30;15.70;;;13.67;;
2055;SDS011;1033;52.560;13.374;2023-05-15T06:12:59;15.90;;;14.23;;
2055;SDS011;1033;52.560;13.374;2023-05-15T06:15:29;13.77;;;12.43;;
2055;SDS011;1033;52.560;13.374;2023-05-15T06:17:58;20.63;;;18.97;;
2055;SDS011;1033;52.560;13.374;2023-05-15T06:20:27;15.80;;;13.93;;
2055;SDS011;1033;52.560;13.374;2023-05-15T06:22:58;15.07;;;13.73;;
2055;SDS011;1033;52.560;13.374;2023-05-15T06:25:27;15.33;;;13.53;;
2055;SDS011;1033;52.560;13.374;2023-05-15T06:27:58;13.07;;;11.77;;
2055;SDS011;1033;52.560;13.374;2023-05-15T06:30:27;14.40;;;12.13;;
2055;SDS011;1033;52.560;13.374;2023-05-15T06:32:57;13.70;;;12.43;;
2055;SDS011;1033;52.560;13.374;2023-05-15T06:35:26;15.00;;;13.43;;
2055;SDS011;1033;52.560;13.374;2023-05-15T06:37:57;16.93;;;12.70;;
2055;SDS011;1033;52.560;13.374;2023-05-15T06:40:27;17.90;;;15.37;;
2055;SDS011;1033;52.560;13.374;2023-05-15T06:42:57;17.17;;;15.37;;
2055;SDS011;1033;52.560;13.374;2023-05-15T06:45:26;16.07;;;13.07;;
2055;SDS011;1033;52.560;13.374;2023-05-15T06:47:55;14.03;;;12.73;;
2055;SDS011;1033;52.560;13.374;2023-05-15T06:50:27;14.03;;;11.20;;
2055;SDS011;1033;52.560;13.374;2023-05-15T06:52:58;15.30;;;13.80;;
2055;SDS011;1033;52.560;13.374;2023-05-15T06:55:31;14.63;;;13.13;;
2055;SDS011;1033;52.560;13.374;2023-05-15T06:58:03;16.97;;;15.47;;
2055;SDS011;1033;52.560;13.374;2023-05-15T07:00:34;20.30;;;18.40;;
2055;SDS011;1033;52.560;13.374;2023-05-15T07:03:03;14.97;;;13.60;;
2055;SDS011;1033;52.560;13.374;2023-05-15T07:05:32;20.13;;;18.27;;
2055;SDS011;1033;52.560;13.374;2023-05-15T07:08:03;20.07;;;17.83;;
2055;SDS011;1033;52.560;13.374;2023-05-15T07:10:32;20.20;;;14.53;;
2055;SDS011;1033;52.560;13.374;2023-05-15T07:13:01;12.73;;;11.10;;
2055;SDS011;1033;52.560;13.374;2023-05-15T07:15:31;15.37;;;12.80;;
2055;SDS011;1033;52.560;13.374;2023-05-15T07:18:01;17.73;;;13.00;;
2055;SDS011;1033;52.560;13.374;2023-05-15T07:20:32;15.40;;;11.77;;
2055;SDS011;1033;52.560;13.374;2023-05-15T07:23:03;20.03;;;12.20;;
2055;SDS011;1033;52.560;13.374;2023-05-15T07:25:33;13.27;;;12.13;;
2055;SDS011;1033;52.560;13.374;2023-05-15T07:28:02;14.30;;;11.90;;
2055;SDS011;1033;52.560;13.374;2023-05-15T07:30:32;13.77;;;10.70;;
2055;SDS011;1033;52.560;13.374;2023-05-15T07:33:01;18.27;;;16.63;;
2055;SDS011;1033;52.560;13.374;2023-05-15T07:35:32;15.77;;;14.10;;
2055;SDS011;1033;52.560;13.374;2023-05-15T07:38:02;12.07;;;10.87;;
2055;SDS011;1033;52.560;13.374;2023-05-15T07:40:33;18.27;;;11.20;;
2055;SDS011;1033;52.560;13.374;2023-05-15T07:43:06;13.67;;;11.10;;
2055;SDS011;1033;52.560;13.374;2023-05-15T07:46:27;11.17;;;9.53;;
2055;SDS011;1033;52.560;13.374;2023-05-15T07:48:56;12.10;;;9.83;;
2055;SDS011;1033;52.560;13.374;2023-05-15T07:51:25;12.53;;;10.97;;
2055;SDS011;1033;52.560;13.374;2023-05-15T07:53:54;12.03;;;9.40;;
2055;SDS011;1033;52.560;13.374;2023-05-15T07:56:24;13.93;;;9.30;;
2055;SDS011;1033;52.560;13.374;2023-05-15T07:58:58;14.83;;;13.07;;
2055;SDS011;1033;52.560;13.374;2023-05-15T08:01:29;13.67;;;11.10;;
2055;SDS011;1033;52.560;13.374;2023-05-15T08:03:58;11.77;;;10.57;;
2055;SDS011;1033;52.560;13.374;2023-05-15T08:06:28;12.20;;;11.23;;
2055;SDS011;1033;52.560;13.374;2023-05-15T08:08:58;11.70;;;10.70;;
2055;SDS011;1033;52.560;13.374;2023-05-15T08:11:27;12.83;;;10.90;;
2055;SDS011;1033;52.560;13.374;2023-05-15T08:13:57;11.30;;;10.13;;
2055;SDS011;1033;52.560;13.374;2023-05-15T08:16:26;12.53;;;10.63;;
2055;SDS011;1033;52.560;13.374;2023-05-15T08:18:57;12.33;;;10.93;;
2055;SDS011;1033;52.560;13.374;2023-05-15T08:21:29;16.50;;;13.07;;
2055;SDS011;1033;52.560;13.374;2023-05-15T08:23:58;10.33;;;9.43;;
2055;SDS011;1033;52.560;13.374;2023-05-15T08:26:27;10.40;;;9.53;;
2055;SDS011;1033;52.560;13.374;2023-05-15T08:28:57;12.73;;;9.80;;
2055;SDS011;1033;52.560;13.374;2023-05-15T08:31:26;10.57;;;9.57;;
2055;SDS011;1033;52.560;13.374;2023-05-15T08:33:56;10.47;;;9.40;;
2055;SDS011;1033;52.560;13.374;2023-05-15T08:36:25;9.83;;;9.03;;
2055;SDS011;1033;52.560;13.374;2023-05-15T08:38:55;10.40;;;9.07;;
2055;SDS011;1033;52.560;13.374;2023-05-15T08:41:29;15.00;;;9.93;;
2055;SDS011;1033;52.560;13.374;2023-05-15T08:44:03;12.50;;;9.70;;
2055;SDS011;1033;52.560;13.374;2023-05-15T08:46:35;11.63;;;10.63;;
2055;SDS011;1033;52.560;13.374;2023-05-15T08:49:07;11.30;;;10.20;;
2055;SDS011;1033;52.560;13.374;2023-05-15T08:51:42;10.53;;;9.53;;
2055;SDS011;1033;52.560;13.374;2023-05-15T08:54:11;10.97;;;9.87;;
2055;SDS011;1033;52.560;13.374;2023-05-15T08:56:41;8.93;;;8.13;;
2055;SDS011;1033;52.560;13.374;2023-05-15T08:59:10;12.13;;;9.00;;
2055;SDS011;1033;52.560;13.374;2023-05-15T09:01:40;10.53;;;9.53;;
2055;SDS011;1033;52.560;13.374;2023-05-15T09:06:52;18.77;;;10.07;;
2055;SDS011;1033;52.560;13.374;2023-05-15T09:09:22;11.80;;;10.60;;
2055;SDS011;1033;52.560;13.374;2023-05-15T09:11:51;9.83;;;8.83;;
2055;SDS011;1033;52.560;13.374;2023-05-15T09:14:22;16.50;;;10.73;;
2055;SDS011;1033;52.560;13.374;2023-05-15T09:16:52;12.47;;;9.30;;
2055;SDS011;1033;52.560;13.374;2023-05-15T09:19:22;15.03;;;12.80;;
2055;SDS011;1033;52.560;13.374;2023-05-15T09:21:51;11.07;;;9.53;;
2055;SDS011;1033;52.560;13.374;2023-05-15T09:24:21;11.90;;;9.80;;
2055;SDS011;1033;52.560;13.374;2023-05-15T09:27:00;11.17;;;8.70;;
2055;SDS011;1033;52.560;13.374;2023-05-15T09:29:30;13.30;;;8.40;;
2055;SDS011;1033;52.560;13.374;2023-05-15T09:32:04;18.87;;;10.00;;
2055;SDS011;1033;52.560;13.374;2023-05-15T09:34:35;12.50;;;9.50;;
2055;SDS011;1033;52.560;13.374;2023-05-15T09:37:07;12.43;;;8.50;;
2055;SDS011;1033;52.560;13.374;2023-05-15T09:39:39;11.17;;;10.13;;
2055;SDS011;1033;52.560;13.374;2023-05-15T09:42:09;8.90;;;8.07;;
2055;SDS011;1033;52.560;13.374;2023-05-15T09:44:40;10.20;;;8.80;;
2055;SDS011;1033;52.560;13.374;2023-05-15T09:47:11;10.63;;;9.30;;
2055;SDS011;1033;52.560;13.374;2023-05-15T09:49:42;9.53;;;8.60;;
2055;SDS011;1033;52.560;13.374;2023-05-15T09:52:12;10.03;;;9.23;;
2055;SDS011;1033;52.560;13.374;2023-05-15T09:54:43;15.90;;;10.90;;
2055;SDS011;1033;52.560;13.374;2023-05-15T09:57:19;13.40;;;9.80;;
2055;SDS011;1033;52.560;13.374;2023-05-15T09:59:49;8.30;;;7.50;;
2055;SDS011;1033;52.560;13.374;2023-05-15T10:02:23;11.40;;;7.70;;
2055;SDS011;1033;52.560;13.374;2023-05-15T10:04:58;9.30;;;8.50;;
2055;SDS011;1033;52.560;13.374;2023-05-15T10:07:27;8.43;;;6.90;;
2055;SDS011;1033;52.560;13.374;2023-05-15T10:09:57;7.83;;;7.13;;
2055;SDS011;1033;52.560;13.374;2023-05-15T10:12:27;7.93;;;7.07;;
2055;SDS011;1033;52.560;13.374;2023-05-15T10:14:58;7.50;;;6.80;;
2055;SDS011;1033;52.560;13.374;2023-05-15T10:17:29;9.70;;;8.77;;
2055;SDS011;1033;52.560;13.374;2023-05-15T10:20:01;12.80;;;7.17;;
2055;SDS011;1033;52.560;13.374;2023-05-15T10:22:36;12.40;;;8.43;;
2055;SDS011;1033;52.560;13.374;2023-05-15T10:25:08;7.63;;;6.93;;
2055;SDS011;1033;52.560;13.374;2023-05-15T10:27:45;7.90;;;7.20;;
2055;SDS011;1033;52.560;13.374;2023-05-15T10:30:16;8.20;;;7.50;;
2055;SDS011;1033;52.560;13.374;2023-05-15T10:32:49;7.77;;;7.03;;
2055;SDS011;1033;52.560;13.374;2023-05-15T10:35:19;8.50;;;7.70;;
2055;SDS011;1033;52.560;13.374;2023-05-15T10:37:49;9.57;;;7.63;;
2055;SDS011;1033;52.560;13.374;2023-05-15T10:40:19;8.60;;;7.30;;
2055;SDS011;1033;52.560;13.374;2023-05-15T10:42:48;7.47;;;6.77;;
2055;SDS011;1033;52.560;13.374;2023-05-15T10:45:17;8.43;;;7.13;;
2055;SDS011;1033;52.560;13.374;2023-05-15T10:47:48;8.57;;;7.80;;
2055;SDS011;1033;52.560;13.374;2023-05-15T10:50:19;8.27;;;6.80;;
2055;SDS011;1033;52.560;13.374;2023-05-15T10:52:49;7.70;;;7.00;;
2055;SDS011;1033;52.560;13.374;2023-05-15T10:55:19;6.23;;;5.30;;
2055;SDS011;1033;52.560;13.374;2023-05-15T10:57:49;8.47;;;7.67;;
2055;SDS011;1033;52.560;13.374;2023-05-15T11:00:26;7.97;;;7.27;;
2055;SDS011;1033;52.560;13.374;2023-05-15T11:02:59;6.20;;;5.60;;
2055;SDS011;1033;52.560;13.374;2023-05-15T11:05:29;6.53;;;5.87;;
2055;SDS011;1033;52.560;13.374;2023-05-15T11:08:34;6.67;;;5.70;;
2055;SDS011;1033;52.560;13.374;2023-05-15T11:11:03;7.83;;;7.07;;
2055;SDS011;1033;52.560;13.374;2023-05-15T11:19:35;6.87;;;4.80;;
2055;SDS011;1033;52.560;13.374;2023-05-15T11:22:18;6.60;;;5.70;;
2055;SDS011;1033;52.560;13.374;2023-05-15T11:24:49;4.93;;;4.57;;
2055;SDS011;1033;52.560;13.374;2023-05-15T11:27:20;5.20;;;4.70;;
2055;SDS011;1033;52.560;13.374;2023-05-15T11:30:03;9.00;;;6.40;;
2055;SDS011;1033;52.560;13.374;2023-05-15T11:32:40;5.60;;;5.03;;
2055;SDS011;1033;52.560;13.374;2023-05-15T11:35:19;6.47;;;4.57;;
2055;SDS011;1033;52.560;13.374;2023-05-15T11:37:51;6.63;;;6.03;;
2055;SDS011;1033;52.560;13.374;2023-05-15T11:40:23;7.53;;;6.73;;
2055;SDS011;1033;52.560;13.374;2023-05-15T11:43:00;6.27;;;5.60;;
2055;SDS011;1033;52.560;13.374;2023-05-15T11:45:45;6.37;;;5.63;;
2055;SDS011;1033;52.560;13.374;2023-05-15T11:48:15;6.23;;;5.80;;
2055;SDS011;1033;52.560;13.374;2023-05-15T11:50:47;6.30;;;5.70;;
2055;SDS011;1033;52.560;13.374;2023-05-15T11:53:19;7.47;;;6.77;;
2055;SDS011;1033;52.560;13.374;2023-05-15T11:55:50;9.10;;;6.83;;
2055;SDS011;1033;52.560;13.374;2023-05-15T11:58:20;7.93;;;6.70;;
2055;SDS011;1033;52.560;13.374;2023-05-15T12:00:51;7.90;;;6.57;;
2055;SDS011;1033;52.560;13.374;2023-05-15T12:07:24;6.03;;;5.30;;
2055;SDS011;1033;52.560;13.374;2023-05-15T12:09:53;4.90;;;4.50;;
2055;SDS011;1033;52.560;13.374;2023-05-15T12:12:22;8.30;;;7.57;;
2055;SDS011;1033;52.560;13.374;2023-05-15T12:14:56;5.03;;;4.53;;
2055;SDS011;1033;52.560;13.374;2023-05-15T12:17:25;5.13;;;4.73;;
2055;SDS011;1033;52.560;13.374;2023-05-15T12:19:54;6.17;;;5.50;;
2055;SDS011;1033;52.560;13.374;2023-05-15T12:22:28;4.60;;;3.80;;
2055;SDS011;1033;52.560;13.374;2023-05-15T12:25:02;4.47;;;4.07;;
2055;SDS011;1033;52.560;13.374;2023-05-15T12:27:33;3.30;;;3.00;;
2055;SDS011;1033;52.560;13.374;2023-05-15T12:30:03;5.43;;;4.93;;
2055;SDS011;1033;52.560;13.374;2023-05-15T12:32:34;6.23;;;5.63;;
2055;SDS011;1033;52.560;13.374;2023-05-15T12:35:04;6.00;;;5.50;;
2055;SDS011;1033;52.560;13.374;2023-05-15T12:37:35;6.03;;;5.60;;
2055;SDS011;1033;52.560;13.374;2023-05-15T12:40:06;5.50;;;5.00;;
2055;SDS011;1033;52.560;13.374;2023-05-15T12:42:38;5.10;;;4.60;;
2055;SDS011;1033;52.560;13.374;2023-05-15T12:45:11;5.93;;;5.33;;
2055;SDS011;1033;52.560;13.374;2023-05-15T12:47:41;5.93;;;5.43;;
2055;SDS011;1033;52.560;13.374;2023-05-15T12:50:19;5.60;;;5.10;;
2055;SDS011;1033;52.560;13.374;2023-05-15T12:52:51;4.37;;;4.00;;
2055;SDS011;1033;52.560;13.374;2023-05-15T12:55:22;4.30;;;4.00;;
2055;SDS011;1033;52.560;13.374;2023-05-15T12:57:53;5.10;;;4.70;;
2055;SDS011;1033;52.560;13.374;2023-05-15T13:00:24;4.70;;;4.30;;
2055;SDS011;1033;52.560;13.374;2023-05-15T13:02:55;5.60;;;4.87;;
2055;SDS011;1033;52.560;13.374;2023-05-15T13:05:25;4.37;;;3.90;;
2055;SDS011;1033;52.560;13.374;2023-05-15T13:07:56;4.27;;;3.87;;
2055;SDS011;1033;52.560;13.374;2023-05-15T13:10:30;4.27;;;2.73;;
2055;SDS011;1033;52.560;13.374;2023-05-15T13:13:00;4.00;;;3.10;;
2055;SDS011;1033;52.560;13.374;2023-05-15T13:15:30;8.93;;;3.40;;
2055;SDS011;1033;52.560;13.374;2023-05-15T13:18:01;4.43;;;3.93;;
2055;SDS011;1033;52.560;13.374;2023-05-15T13:20:32;6.97;;;4.27;;
2055;SDS011;1033;52.560;13.374;2023-05-15T13:23:04;5.07;;;4.67;;
2055;SDS011;1033;52.560;13.374;2023-05-15T13:25:34;5.87;;;4.57;;
2055;SDS011;1033;52.560;13.374;2023-05-15T13:28:07;4.57;;;4.10;;
2055;SDS011;1033;52.560;13.374;2023-05-15T13:30:37;6.07;;;4.83;;
2055;SDS011;1033;52.560;13.374;2023-05-15T13:33:08;3.30;;;2.87;;
2055;SDS011;1033;52.560;13.374;2023-05-15T13:35:38;7.17;;;2.97;;
2055;SDS011;1033;52.560;13.374;2023-05-15T13:38:10;6.20;;;3.00;;
2055;SDS011;1033;52.560;13.374;2023-05-15T13:40:39;12.73;;;3.10;;
2055;SDS011;1033;52.560;13.374;2023-05-15T13:43:08;13.40;;;2.50;;
2055;SDS011;1033;52.560;13.374;2023-05-15T13:45:37;3.30;;;2.07;;
2055;SDS011;1033;52.560;13.374;2023-05-15T13:48:06;3.33;;;2.43;;
2055;SDS011;1033;52.560;13.374;2023-05-15T13:50:35;2.80;;;2.60;;
2055;SDS011;1033;52.560;13.374;2023-05-15T13:53:05;2.33;;;1.87;;
2055;SDS011;1033;52.560;13.374;2023-05-15T13:55:35;3.93;;;2.57;;
2055;SDS011;1033;52.560;13.374;2023-05-15T13:58:04;3.93;;;2.90;;
2055;SDS011;1033;52.560;13.374;2023-05-15T14:00:33;3.87;;;3.30;;
2055;SDS011;1033;52.560;13.374;2023-05-15T14:03:03;2.30;;;2.10;;
2055;SDS011;1033;52.560;13.374;2023-05-15T14:05:32;4.33;;;3.60;;
2055;SDS011;1033;52.560;13.374;2023-05-15T14:08:01;4.50;;;3.10;;
2055;SDS011;1033;52.560;13.374;2023-05-15T14:10:30;3.57;;;3.27;;
2055;SDS011;1033;52.560;13.374;2023-05-15T14:13:01;3.77;;;3.10;;
2055;SDS011;1033;52.560;13.374;2023-05-15T14:15:30;3.63;;;3.33;;
2055;SDS011;1033;52.560;13.374;2023-05-15T14:17:59;4.73;;;3.10;;
2055;SDS011;1033;52.560;13.374;2023-05-15T14:20:28;7.10;;;3.90;;
2055;SDS011;1033;52.560;13.374;2023-05-15T14:22:57;3.77;;;3.47;;
2055;SDS011;1033;52.560;13.374;2023-05-15T14:25:26;5.60;;;4.17;;
2055;SDS011;1033;52.560;13.374;2023-05-15T14:27:55;4.57;;;3.70;;
2055;SDS011;1033;52.560;13.374;2023-05-15T14:30:26;4.50;;;3.93;;
2055;SDS011;1033;52.560;13.374;2023-05-15T14:32:55;4.10;;;3.80;;
2055;SDS011;1033;52.560;13.374;2023-05-15T14:35:24;4.50;;;3.90;;
2055;SDS011;1033;52.560;13.374;2023-05-15T14:37:53;3.70;;;3.40;;
2055;SDS011;1033;52.560;13.374;2023-05-15T14:40:23;4.90;;;4.50;;
2055;SDS011;1033;52.560;13.374;2023-05-15T14:42:52;4.50;;;3.90;;
2055;SDS011;1033;52.560;13.374;2023-05-15T14:45:22;4.40;;;4.00;;
2055;SDS011;1033;52.560;13.374;2023-05-15T14:47:53;5.37;;;4.80;;
2055;SDS011;1033;52.560;13.374;2023-05-15T14:50:22;4.80;;;4.37;;
2055;SDS011;1033;52.560;13.374;2023-05-15T14:52:51;7.77;;;4.07;;
2055;SDS011;1033;52.560;13.374;2023-05-15T14:55:21;6.13;;;3.97;;
2055;SDS011;1033;52.560;13.374;2023-05-15T14:57:50;4.33;;;3.60;;
2055;SDS011;1033;52.560;13.374;2023-05-15T15:00:19;4.13;;;3.30;;
2055;SDS011;1033;52.560;13.374;2023-05-15T15:02:48;4.90;;;3.20;;
2055;SDS011;1033;52.560;13.374;2023-05-15T15:05:19;4.33;;;3.93;;
2055;SDS011;1033;52.560;13.374;2023-05-15T15:08:00;4.63;;;3.20;;
2055;SDS011;1033;52.560;13.374;2023-05-15T15:10:30;3.40;;;3.10;;
2055;SDS011;1033;52.560;13.374;2023-05-15T15:13:01;3.80;;;3.17;;
2055;SDS011;1033;52.560;13.374;2023-05-15T15:15:32;3.67;;;2.97;;
2055;SDS011;1033;52.560;13.374;2023-05-15T15:18:03;4.13;;;3.07;;
2055;SDS011;1033;52.560;13.374;2023-05-15T15:20:34;3.50;;;2.80;;
2055;SDS011;1033;52.560;13.374;2023-05-15T15:23:04;4.30;;;2.83;;